METAR Data
IDs: Format: Raw Decoded Include TAF

Data at: 1609 UTC 17 Nov 2019

METAR for:KITR (Burlington/Kit Carso, CO, US)
Text:KITR 171553Z AUTO 31006KT 10SM CLR 07/M01 A3018 RMK AO2 SLP213 T00671011
Temperature: 6.7°C ( 44°F)
Dewpoint: -1.1°C ( 30°F) [RH = 57%]
Pressure (altimeter):30.18 inches Hg (1022.1 mb) [Sea level pressure: 1021.3 mb]
Winds:from the NW (310 degrees) at 7 MPH (6 knots; 3.1 m/s)
Visibility:10 or more sm (16+ km)
Ceiling:at least 12,000 feet AGL
Clouds:sky clear below 12,000 feet AGL
QC Flag:automated observation with no human augmentation